Impacts METAR Board
IDs:

KCFD - Bryan/Coulter Fld, TX, US

Updated at: 1000 UTC 26 May 2019
Potential Impact None Slight Moderate High
Time 25/22Z 25/23Z 26/00Z 26/01Z 26/02Z 26/03Z 26/04Z 26/05Z 26/06Z 26/07Z 26/08Z 26/09Z 26/10Z
Temp89 87 86 84 81 80 78 76 74 74 74 74 73
Dewpt67 67 64 65 67 68 69 71 73 74 74 74 73
Altim30.01 30.00 30.00 30.00 30.01 30.02 30.04 30.03 30.05 30.05 30.03 30.05 30.05
VIS10 10 10 10 10 10 10 10 10 10 10 10 10
CIG-- -- -- -- -- -- -- -- -- -- 11 11 --
CoverSCTSCTCLRCLRCLRCLRCLRCLRCLRSCTOVCOVCSCT
FltCatVFRVFRVFRVFRVFRVFRVFRVFRVFRVFRMVFRMVFRVFR
WX--------------------------
WDir150140160160160140150150160150150160150
WSpd12 13 10 10 8 10 8 12 6 7 7 5 5
WGst16 19 15 15 -- -- -- 18 -- -- -- -- --
Raw hourly METARs
KCFD 252155Z AUTO 15012G16KT 10SM SCT060 32/19 A3001 RMK AO2 T03170192
KCFD 252255Z AUTO 14013G19KT 10SM SCT055 SCT065 31/20 A3000 RMK AO2 T03070195
KCFD 252355Z AUTO 16010G15KT 10SM CLR 30/18 A3000 RMK AO2 T03010177 10323 20295
KCFD 260055Z AUTO 16010G15KT 10SM CLR 29/19 A3000 RMK AO2 T02870186
KCFD 260155Z AUTO 16008KT 10SM CLR 27/20 A3001 RMK AO2 T02730196
KCFD 260255Z AUTO 14010KT 10SM CLR 26/20 A3002 RMK AO2 T02640201
KCFD 260355Z AUTO 15008KT 10SM CLR 25/21 A3004 RMK AO2 T02530206
KCFD 260455Z AUTO 15012G18KT 10SM CLR 25/22 A3003 RMK AO2 T02450215
KCFD 260555Z AUTO 16006KT 10SM CLR 24/23 A3005 RMK AO2 T02350230 10301 20235 403230211
KCFD 260655Z AUTO 15007KT 10SM SCT011 23/23 A3005 RMK AO2 T02310231
KCFD 260755Z AUTO 15007KT 10SM OVC011 23/23 A3003 RMK AO2 T02310231
KCFD 260855Z AUTO 16005KT 10SM BKN011 BKN020 OVC031 23/23 A3005 RMK AO2 T02320232
KCFD 260955Z AUTO 15005KT 10SM SCT013 23/23 A3005 RMK AO2 T02290229